Data for 02/05/2018

Time Sea-Level Adjusted Pressure Absolute Pressure Temperature Relative Humidity Dew Point   
(mb) (inHg) (mb) (inHg) (C) (F) (%) (C) (F)
00:05 1010 29.83 839 24.78 3.3 37.9 65 -2.6 27.3
00:10 1010 29.83 839 24.78 3.4 38.2 64 -2.7 27.2
00:15 1010 29.83 839 24.78 3.5 38.4 64 -2.6 27.3
00:20 1010 29.83 839 24.78 3.4 38.2 65 -2.5 27.5
00:25 1010 29.83 839 24.78 3.3 38 65 -2.6 27.3
00:30 1010 29.83 839 24.78 3.3 38 64 -2.7 27.1
00:35 1010 29.83 839 24.78 3.4 38.1 64 -2.8 27
00:40 1010 29.83 839 24.78 3.4 38.2 64 -2.7 27.2
00:45 1010 29.83 839 24.78 3.3 38 64 -2.8 26.9
00:50 1010 29.83 839 24.78 3.3 37.9 64 -2.9 26.8
00:55 1010 29.83 839 24.78 3.4 38.1 63 -2.9 26.8
01:00 1010 29.83 839 24.78 3.4 38.2 64 -2.8 26.9
01:05 1010 29.83 839 24.78 3.4 38.2 64 -2.8 26.9
01:10 1010 29.83 839 24.78 3.5 38.3 62 -3 26.6
01:15 1010 29.83 839 24.78 3.7 38.7 61 -3.2 26.3
01:20 1010 29.83 840 24.81 4.1 39.3 58 -3.5 25.8
01:25 1010 29.83 840 24.81 4.2 39.6 58 -3.3 26.1
01:30 1010 29.83 840 24.81 4.2 39.5 58 -3.3 26.1
01:35 1011 29.85 840 24.81 4.1 39.4 59 -3.3 26.1
01:40 1011 29.85 840 24.81 4 39.3 60 -3.1 26.4
01:45 1011 29.85 840 24.81 3.9 39 61 -3 26.6
01:50 1011 29.85 840 24.81 3.5 38.3 64 -2.7 27.1
01:55 1011 29.85 840 24.81 2.6 36.6 68 -2.8 26.9
02:00 1011 29.85 840 24.81 1.6 34.9 71 -3 26.6
02:05 1011 29.85 840 24.81 1.4 34.5 73 -3 26.7
02:10 1011 29.85 840 24.81 1.4 34.5 74 -2.8 27
02:15 1011 29.85 840 24.81 1.4 34.6 74 -2.6 27.3
02:20 1011 29.85 840 24.81 1.4 34.6 74 -2.7 27.1
02:25 1011 29.85 841 24.83 1.6 34.9 73 -2.7 27.1
02:30 1012 29.88 841 24.83 1.7 35.1 73 -2.6 27.3
02:35 1012 29.88 841 24.83 1.6 34.9 73 -2.7 27.2
02:40 1012 29.88 841 24.83 1.5 34.6 74 -2.7 27.1
02:45 1012 29.88 841 24.83 1.3 34.4 74 -2.8 27
02:50 1012 29.88 841 24.83 1.1 34 75 -2.8 27
02:55 1012 29.88 841 24.83 0.7 33.2 77 -2.8 26.9
03:00 1012 29.88 841 24.83 0.2 32.4 79 -3.1 26.5
03:05 1012 29.88 841 24.83 0.1 32.2 79 -3.1 26.4
03:10 1012 29.88 841 24.83 0 32.1 79 -3.1 26.3
03:15 1012 29.88 841 24.83 0.1 32.2 79 -3.1 26.4
03:20 1012 29.88 841 24.83 0.2 32.3 79 -3.1 26.4
03:25 1012 29.88 841 24.83 0.3 32.5 78 -3.1 26.4
03:30 1012 29.88 841 24.83 0.6 33.1 77 -3 26.6
03:35 1012 29.88 841 24.83 0.7 33.3 77 -2.9 26.7
03:40 1012 29.88 841 24.83 0.8 33.5 77 -2.8 26.9
03:45 1012 29.88 842 24.86 0.9 33.6 77 -2.8 27
03:50 1012 29.88 842 24.86 0.9 33.7 76 -2.7 27.1
03:55 1013 29.91 842 24.86 0.9 33.5 76 -2.8 26.9
04:00 1013 29.91 842 24.86 0.8 33.4 77 -2.8 27
04:05 1013 29.91 842 24.86 0.5 33 78 -2.8 26.9
04:10 1013 29.91 842 24.86 0.2 32.3 81 -2.7 27.1
04:15 1013 29.91 842 24.86 -0 31.9 81 -2.9 26.7
04:20 1013 29.91 842 24.86 0 32 81 -2.8 26.9
04:25 1013 29.91 842 24.86 0 32 81 -2.8 26.9
04:30 1013 29.91 842 24.86 -0.1 31.8 82 -2.9 26.8
04:35 1013 29.91 842 24.86 -0.3 31.4 83 -2.9 26.8
04:40 1013 29.91 842 24.86 -0.4 31.3 82 -3 26.6
04:45 1013 29.91 842 24.86 -0.5 31.1 83 -3 26.5
04:50 1013 29.91 842 24.86 -0.7 30.7 84 -3.1 26.4
04:55 1013 29.91 842 24.86 -0.9 30.4 85 -3.1 26.4
05:00 1013 29.91 842 24.86 -1 30.2 86 -3.1 26.5
05:05 1013 29.91 842 24.86 -1.1 30 88 -2.9 26.8
05:10 1013 29.91 843 24.89 -1.3 29.6 89 -3 26.7
05:15 1013 29.91 843 24.89 -1.4 29.5 89 -2.9 26.8
05:20 1013 29.91 843 24.89 -1.4 29.5 90 -2.9 26.8
05:25 1014 29.94 843 24.89 -1.5 29.3 90 -2.9 26.9
05:30 1014 29.94 843 24.89 -1.5 29.3 90 -2.9 26.8
05:35 1013 29.91 843 24.89 -1.6 29.2 90 -3 26.7
05:40 1014 29.94 843 24.89 -1.8 28.7 91 -3.2 26.3
05:45 1014 29.94 843 24.89 -2.7 27.2 89 -4.3 24.3
05:50 1014 29.94 843 24.89 -3.6 25.5 89 -5.2 22.6
05:55 1014 29.94 843 24.89 -4.3 24.2 90 -5.8 21.6
06:00 1014 29.94 843 24.89 -4.7 23.6 89 -6.2 20.9
06:05 1014 29.94 843 24.89 -5.2 22.6 88 -6.9 19.6
06:10 1014 29.94 843 24.89 -5.7 21.7 87 -7.5 18.6
06:15 1014 29.94 843 24.89 -6.1 21 89 -7.7 18.2
06:20 1014 29.94 843 24.89 -6.2 20.9 89 -7.8 18
06:25 1014 29.94 843 24.89 -6.4 20.4 88 -8 17.5
06:30 1014 29.94 843 24.89 -6.6 20.1 88 -8.2 17.3
06:35 1014 29.94 843 24.89 -6.7 20 88 -8.3 17
06:40 1014 29.94 843 24.89 -6.8 19.7 89 -8.3 17.1
06:45 1014 29.94 843 24.89 -6.8 19.8 89 -8.2 17.2
06:50 1014 29.94 844 24.92 -6.7 19.9 90 -8.2 17.3
06:55 1014 29.94 844 24.92 -6.8 19.8 89 -8.3 17.1
07:00 1014 29.94 844 24.92 -6.9 19.6 89 -8.4 16.9
07:05 1015 29.97 844 24.92 -7 19.4 88 -8.7 16.4
07:10 1015 29.97 844 24.92 -7.3 18.9 88 -8.9 16
07:15 1015 29.97 844 24.92 -7.5 18.6 89 -9.1 15.7
07:20 1015 29.97 844 24.92 -7.5 18.6 89 -9 15.8
07:25 1015 29.97 844 24.92 -7.6 18.4 89 -9.1 15.6
07:30 1015 29.97 844 24.92 -7.6 18.3 89 -9.2 15.5
07:35 1015 29.97 844 24.92 -7.7 18.1 88 -9.3 15.2
07:40 1015 29.97 844 24.92 -8 17.7 88 -9.6 14.7
07:45 1015 29.97 844 24.92 -8.3 17.2 88 -9.9 14.1
07:50 1015 29.97 844 24.92 -8.3 17 87 -10.1 13.8
07:55 1015 29.97 844 24.92 -8.4 16.8 87 -10.2 13.7
08:00 1015 29.97 844 24.92 -8.4 16.9 87 -10.2 13.6
08:05 1015 29.97 844 24.92 -8.4 16.8 87 -10.2 13.6
08:10 1015 29.97 844 24.92 -8.3 17 87 -10.2 13.7
08:15 1015 29.97 844 24.92 -8.2 17.2 87 -10 13.9
08:20 1015 29.97 844 24.92 -8.1 17.4 85 -10.1 13.8
08:25 1015 29.97 844 24.92 -7.9 17.7 87 -9.7 14.5
08:30 1015 29.97 844 24.92 -7.7 18.2 88 -9.4 15.1
08:35 1015 29.97 844 24.92 -7.6 18.3 88 -9.3 15.3
08:40 1015 29.97 844 24.92 -7.5 18.4 88 -9.2 15.4
08:45 1015 29.97 845 24.95 -7.4 18.6 86 -9.3 15.2
08:50 1015 29.97 845 24.95 -7.7 18.1 78 -10.9 12.4
08:55 1015 29.97 845 24.95 -8.1 17.5 77 -11.4 11.5
09:00 1015 29.97 845 24.95 -8.1 17.4 77 -11.4 11.4
09:05 1015 29.97 845 24.95 -8.3 17.1 78 -11.5 11.3
09:10 1016 30 845 24.95 -8.4 17 76 -11.9 10.6
09:15 1016 30 845 24.95 -8.4 16.8 75 -12.1 10.2
09:20 1016 30 845 24.95 -8.5 16.6 76 -12 10.3
09:25 1016 30 845 24.95 -8.5 16.7 76 -12 10.5
09:30 1015 29.97 845 24.95 -8.5 16.8 75 -12.1 10.3
09:35 1016 30 845 24.95 -8.4 16.9 76 -12 10.4
09:40 1016 30 845 24.95 -8.2 17.3 76 -11.7 11
09:45 1016 30 845 24.95 -7.9 17.8 77 -11.2 11.8
09:50 1016 30 845 24.95 -7.7 18.2 80 -10.6 12.9
09:55 1016 30 845 24.95 -7.5 18.5 83 -9.9 14.1
10:00 1016 30 845 24.95 -7.2 19.1 84 -9.5 14.9
10:05 1016 30 845 24.95 -6.9 19.5 80 -9.9 14.2
10:10 1016 30 845 24.95 -6.8 19.8 78 -10 14
10:15 1016 30 845 24.95 -7 19.5 78 -10.2 13.6
10:20 1016 30 845 24.95 -7.1 19.3 80 -9.9 14.2
10:25 1016 30 845 24.95 -6.4 20.4 78 -9.6 14.7
10:30 1016 30 845 24.95 -6.1 21 78 -9.4 15.1
10:35 1016 30 845 24.95 -6.5 20.2 78 -9.7 14.5
10:40 1016 30 845 24.95 -7 19.3 80 -10 14.1
10:45 1016 30 845 24.95 -6.9 19.6 79 -10 14
10:50 1016 30 845 24.95 -6.7 19.9 79 -9.7 14.5
10:55 1016 30 845 24.95 -6.1 20.9 78 -9.4 15
11:00 1016 30 846 24.98 -6.2 20.8 78 -9.6 14.8
11:05 1016 30 846 24.98 -6.5 20.4 76 -10.1 13.9
11:10 1016 30 846 24.98 -6.8 19.7 78 -10 13.9
11:15 1016 30 846 24.98 -6.5 20.3 77 -9.9 14.2
11:20 1016 30 846 24.98 -5.6 22 72 -9.8 14.4
11:25 1017 30.03 846 24.98 -6 21.2 76 -9.6 14.7
11:30 1017 30.03 846 24.98 -6.1 21 73 -10.2 13.6
11:35 1016 30 846 24.98 -6.3 20.7 72 -10.6 13
11:40 1016 30 846 24.98 -6 21.2 70 -10.6 12.9
11:45 1016 30 846 24.98 -6.6 20.2 71 -11.1 12.1
11:50 1016 30 846 24.98 -7 19.5 73 -11.1 12
11:55 1016 30 845 24.95 -6.9 19.5 73 -10.9 12.3
12:00 1016 30 845 24.95 -6.4 20.4 68 -11.4 11.6
12:05 1016 30 845 24.95 -6.1 21.1 65 -11.6 11.1
12:10 1016 30 845 24.95 -6.3 20.6 66 -11.7 10.9
12:15 1016 30 845 24.95 -6.7 20 67 -11.7 10.9
12:20 1016 30 845 24.95 -6.5 20.2 65 -12.1 10.3
12:25 1016 30 845 24.95 -6.5 20.2 64 -12.2 10.1
12:30 1016 30 845 24.95 -6.6 20.1 64 -12.3 9.8
12:35 1016 30 845 24.95 -6.6 20.1 65 -12.2 10
12:40 1016 30 845 24.95 -6.4 20.5 64 -12.2 10.1
12:45 1016 30 845 24.95 -6.3 20.7 62 -12.4 9.7
12:50 1016 30 845 24.95 -6 21.2 62 -12.1 10.2
12:55 1016 30 845 24.95 -5.8 21.5 62 -12 10.4
13:00 1016 30 845 24.95 -5.3 22.4 61 -11.7 10.9
13:05 1016 30 845 24.95 -5 22.9 59 -11.8 10.7
13:10 1016 30 845 24.95 -3.9 24.9 54 -11.9 10.5
13:15 1015 29.97 845 24.95 -2.9 26.8 55 -10.7 12.7
13:20 1015 29.97 845 24.95 -2.1 28.2 56 -9.8 14.4
13:25 1015 29.97 845 24.95 -2.3 27.9 57 -9.6 14.7
13:30 1015 29.97 845 24.95 -3 26.6 59 -10 14
13:35 1015 29.97 845 24.95 -2.8 26.9 61 -9.3 15.2
13:40 1015 29.97 845 24.95 -3.4 25.9 61 -9.8 14.4
13:45 1015 29.97 845 24.95 -2.9 26.7 61 -9.5 14.9
13:50 1015 29.97 845 24.95 -3.8 25.2 65 -9.5 14.9
13:55 1015 29.97 845 24.95 -3.8 25.2 65 -9.5 15
14:00 1015 29.97 845 24.95 -3.9 25.1 64 -9.7 14.6
14:05 1015 29.97 844 24.92 -4.1 24.7 66 -9.4 15
14:10 1015 29.97 844 24.92 -4.6 23.8 69 -9.4 15.1
14:15 1015 29.97 844 24.92 -5.3 22.4 71 -9.8 14.4
14:20 1015 29.97 844 24.92 -6.1 21 73 -10.1 13.8
14:25 1015 29.97 844 24.92 -6 21.2 74 -9.9 14.2
14:30 1015 29.97 844 24.92 -6.6 20.1 77 -10.1 13.9
14:35 1015 29.97 844 24.92 -6.4 20.5 77 -9.8 14.3
14:40 1015 29.97 844 24.92 -5.5 22 72 -9.8 14.3
14:45 1015 29.97 844 24.92 -5.3 22.4 72 -9.7 14.6
14:50 1015 29.97 844 24.92 -5 23 70 -9.6 14.7
14:55 1015 29.97 844 24.92 -4.9 23.2 70 -9.5 14.9
15:00 1015 29.97 844 24.92 -5 23 71 -9.4 15
15:05 1015 29.97 844 24.92 -5.1 22.9 71 -9.6 14.8
15:10 1015 29.97 845 24.95 -5.1 22.9 71 -9.6 14.8
15:15 1015 29.97 845 24.95 -5.1 22.8 69 -9.9 14.2
15:20 1015 29.97 845 24.95 -5.2 22.7 70 -9.8 14.4
15:25 1015 29.97 845 24.95 -5.1 22.8 70 -9.8 14.4
15:30 1016 30 845 24.95 -5 23 69 -9.9 14.2
15:35 1016 30 845 24.95 -5.1 22.8 69 -10 14.1
15:40 1015 29.97 845 24.95 -5.3 22.4 72 -9.7 14.5
15:45 1015 29.97 845 24.95 -5 22.9 69 -9.8 14.4
15:50 1015 29.97 845 24.95 -5 23 70 -9.7 14.6
15:55 1015 29.97 845 24.95 -5.1 22.9 69 -9.8 14.3
16:00 1015 29.97 845 24.95 -5.3 22.5 71 -9.7 14.5
16:05 1015 29.97 845 24.95 -5.3 22.5 71 -9.8 14.3
16:10 1015 29.97 845 24.95 -5.6 21.9 72 -9.8 14.3
16:15 1015 29.97 844 24.92 -5.7 21.7 72 -10 14
16:20 1015 29.97 844 24.92 -5.9 21.4 73 -9.9 14.1
16:25 1015 29.97 844 24.92 -6 21.2 76 -9.6 14.8
16:30 1015 29.97 844 24.92 -5.9 21.3 74 -9.8 14.4
16:35 1015 29.97 844 24.92 -6.3 20.6 77 -9.7 14.5
16:40 1015 29.97 844 24.92 -6.2 20.8 78 -9.5 15
16:45 1015 29.97 844 24.92 -6.1 21.1 78 -9.3 15.3
16:50 1015 29.97 844 24.92 -6.3 20.7 79 -9.3 15.2
16:55 1015 29.97 844 24.92 -6.3 20.6 80 -9.1 15.5
17:00 1015 29.97 844 24.92 -6 21.2 78 -9.3 15.2
17:05 1015 29.97 845 24.95 -5.7 21.8 77 -9.2 15.5
17:10 1015 29.97 844 24.92 -5.6 21.8 77 -9.1 15.6
17:15 1015 29.97 844 24.92 -5.7 21.7 75 -9.4 15.1
17:20 1015 29.97 845 24.95 -6.3 20.7 80 -9.2 15.5
17:25 1015 29.97 845 24.95 -6.5 20.3 81 -9.2 15.5
17:30 1015 29.97 845 24.95 -6.4 20.5 80 -9.3 15.2
17:35 1015 29.97 845 24.95 -6.2 20.9 79 -9.3 15.3
17:40 1015 29.97 845 24.95 -6.1 21 77 -9.5 14.9
17:45 1016 30 845 24.95 -6.8 19.8 81 -9.5 14.8
17:50 1016 30 845 24.95 -7 19.4 82 -9.5 14.9
17:55 1016 30 845 24.95 -6.9 19.6 81 -9.6 14.7
18:00 1015 29.97 845 24.95 -7.1 19.3 83 -9.5 14.9
18:05 1015 29.97 845 24.95 -7.1 19.2 83 -9.5 14.8
18:10 1015 29.97 845 24.95 -7.3 18.9 84 -9.6 14.8
18:15 1015 29.97 845 24.95 -7.5 18.5 85 -9.6 14.6
18:20 1015 29.97 845 24.95 -7.6 18.4 85 -9.6 14.6
18:25 1015 29.97 845 24.95 -7.5 18.6 84 -9.7 14.6
18:30 1015 29.97 845 24.95 -7.5 18.5 84 -9.7 14.5
18:35 1015 29.97 845 24.95 -7.5 18.5 85 -9.6 14.7
18:40 1015 29.97 845 24.95 -7.4 18.7 84 -9.6 14.7
18:45 1015 29.97 845 24.95 -7.3 18.8 84 -9.6 14.7
18:50 1015 29.97 845 24.95 -7.2 19 84 -9.5 14.9
18:55 1015 29.97 845 24.95 -7.1 19.2 83 -9.6 14.7
19:00 1015 29.97 845 24.95 -7.3 18.8 84 -9.6 14.7
19:05 1015 29.97 845 24.95 -7.4 18.7 84 -9.7 14.6
19:10 1015 29.97 845 24.95 -7.4 18.6 84 -9.7 14.6
19:15 1015 29.97 845 24.95 -7.3 18.8 84 -9.6 14.8
19:20 1015 29.97 845 24.95 -7.2 19 84 -9.5 14.9
19:25 1015 29.97 845 24.95 -7.1 19.2 83 -9.5 15
19:30 1015 29.97 845 24.95 -7.2 19.1 84 -9.5 14.9
19:35 1015 29.97 845 24.95 -7.3 18.8 84 -9.6 14.7
19:40 1015 29.97 845 24.95 -7.3 18.9 83 -9.7 14.5
19:45 1015 29.97 845 24.95 -7.2 19 82 -9.8 14.4
19:50 1015 29.97 845 24.95 -7.3 18.9 82 -9.8 14.4
19:55 1015 29.97 845 24.95 -7.3 18.9 81 -10 14
20:00 1015 29.97 845 24.95 -7.4 18.7 79 -10.4 13.3
20:05 1015 29.97 845 24.95 -7.5 18.4 79 -10.6 12.9
20:10 1015 29.97 845 24.95 -7.5 18.4 79 -10.6 12.8
20:15 1015 29.97 845 24.95 -7.5 18.4 78 -10.8 12.6
20:20 1015 29.97 845 24.95 -7.5 18.5 77 -10.9 12.4
20:25 1015 29.97 845 24.95 -7.5 18.5 77 -10.8 12.5
20:30 1015 29.97 845 24.95 -7.6 18.3 77 -10.9 12.4
20:35 1016 30 845 24.95 -7.8 18.1 79 -10.7 12.7
20:40 1016 30 845 24.95 -7.6 18.3 78 -10.8 12.6
20:45 1016 30 845 24.95 -7.8 17.9 83 -10.2 13.6
20:50 1016 30 845 24.95 -7.9 17.8 84 -10.1 13.8
20:55 1016 30 845 24.95 -7.9 17.7 86 -9.9 14.2
21:00 1016 30 845 24.95 -8 17.7 87 -9.8 14.3
21:05 1016 30 845 24.95 -7.8 17.9 87 -9.6 14.8
21:10 1016 30 845 24.95 -7.6 18.3 86 -9.6 14.7
21:15 1016 30 845 24.95 -7.8 17.9 86 -9.7 14.5
21:20 1016 30 845 24.95 -8 17.7 87 -9.7 14.5
21:25 1016 30 845 24.95 -7.7 18.2 87 -9.5 14.8
21:30 1016 30 845 24.95 -7.5 18.4 86 -9.5 14.8
21:35 1016 30 845 24.95 -7.5 18.5 86 -9.5 14.9
21:40 1016 30 845 24.95 -7.4 18.6 85 -9.5 14.9
21:45 1016 30 845 24.95 -7.6 18.3 86 -9.5 14.8
21:50 1016 30 845 24.95 -7.9 17.9 87 -9.7 14.5
21:55 1016 30 845 24.95 -8 17.7 87 -9.8 14.4
22:00 1016 30 845 24.95 -8.1 17.5 87 -9.9 14.3
22:05 1016 30 845 24.95 -8.1 17.4 87 -9.9 14.1
22:10 1016 30 845 24.95 -8.1 17.4 87 -10 14.1
22:15 1015 29.97 845 24.95 -8.1 17.4 87 -9.9 14.2
22:20 1015 29.97 845 24.95 -8.1 17.5 87 -9.9 14.2
22:25 1015 29.97 844 24.92 -8 17.5 87 -9.8 14.3
22:30 1015 29.97 844 24.92 -8 17.7 87 -9.8 14.4
22:35 1015 29.97 844 24.92 -7.9 17.8 87 -9.7 14.5
22:40 1015 29.97 844 24.92 -7.8 18 87 -9.7 14.6
22:45 1015 29.97 844 24.92 -7.7 18.2 85 -9.8 14.4
22:50 1015 29.97 844 24.92 -7.6 18.2 84 -10 14.1
22:55 1015 29.97 844 24.92 -7.7 18.1 83 -10.1 13.7
23:00 1015 29.97 844 24.92 -7.8 18 82 -10.3 13.5
23:05 1015 29.97 844 24.92 -7.8 17.9 81 -10.5 13.1
23:10 1015 29.97 844 24.92 -7.8 18 80 -10.6 12.9
23:15 1015 29.97 844 24.92 -7.8 18 81 -10.6 13
23:20 1015 29.97 844 24.92 -7.7 18.1 81 -10.5 13.2
23:25 1015 29.97 844 24.92 -7.5 18.5 80 -10.4 13.3
23:30 1015 29.97 844 24.92 -7.4 18.7 80 -10.3 13.4
23:35 1015 29.97 844 24.92 -7.4 18.7 80 -10.3 13.4
23:40 1015 29.97 844 24.92 -7.3 18.8 80 -10.2 13.6
23:45 1015 29.97 844 24.92 -7.1 19.3 80 -10 14
23:50 1015 29.97 844 24.92 -6.8 19.7 79 -9.9 14.2
23:55 1015 29.97 844 24.92 -6.7 19.9 79 -9.9 14.2
24:00 1015 29.97 844 24.92 -6.8 19.8 79 -9.9 14.2